Time;durP1;ratioP1;P1;durP2;ratioP2;P2;SDS_P1;SDS_P2;PMS_P1;PMS_P2;Temp;Humidity;BMP_temperature;BMP_pressure;BME280_temperature;BME280_humidity;BME280_pressure;Samples;Min_cycle;Max_cycle;Signal;HPM_P1;HPM_P2
2022/06/02 00:01:09;;;;;;;0.50;0.50;;;15.20;87.90;;;;;;5094403;28;20795;-92
2022/06/02 00:03:41;;;;;;;0.40;0.40;;;15.20;88.10;;;;;;5094097;28;20499;-92
2022/06/02 00:06:16;;;;;;;0.40;0.40;;;15.10;88.40;;;;;;5094284;28;20443;-92
2022/06/02 00:08:59;;;;;;;0.50;0.43;;;15.10;88.90;;;;;;5094282;28;20461;-92
2022/06/02 00:11:41;;;;;;;0.37;0.30;;;15.10;88.80;;;;;;5094212;28;20429;-92
2022/06/02 00:14:12;;;;;;;0.30;0.30;;;15.00;88.50;;;;;;5094022;28;20467;-92
2022/06/02 00:16:50;;;;;;;0.40;0.40;;;15.00;89.30;;;;;;5094180;28;20471;-92
2022/06/02 00:19:38;;;;;;;0.40;0.40;;;15.00;89.60;;;;;;5094264;28;20428;-92
2022/06/02 00:22:12;;;;;;;0.40;0.30;;;15.00;90.10;;;;;;5094079;28;20899;-92
2022/06/02 00:24:44;;;;;;;0.30;0.30;;;14.90;89.60;;;;;;5093733;28;20467;-92
2022/06/02 00:27:20;;;;;;;0.30;0.30;;;14.90;89.60;;;;;;5094151;28;20405;-92
2022/06/02 00:29:53;;;;;;;0.50;0.50;;;14.80;89.60;;;;;;5094055;28;20435;-91
2022/06/02 00:32:24;;;;;;;0.30;0.30;;;14.80;89.20;;;;;;5093955;28;20482;-92
2022/06/02 00:35:04;;;;;;;0.47;0.43;;;14.80;89.60;;;;;;5094076;28;20464;-91
2022/06/02 00:37:37;;;;;;;0.50;0.37;;;14.80;89.80;;;;;;5093925;28;20439;-92
2022/06/02 00:40:07;;;;;;;0.63;0.40;;;14.80;90.00;;;;;;5093868;28;20458;-91
2022/06/02 00:42:53;;;;;;;0.40;0.30;;;14.70;90.10;;;;;;5095776;28;21022;-89
2022/06/02 00:45:21;;;;;;;2.00;0.40;;;14.80;90.00;;;;;;5096822;28;20970;-83
2022/06/02 00:47:53;;;;;;;0.40;0.30;;;14.70;89.70;;;;;;5097020;28;20577;-91
2022/06/02 00:50:43;;;;;;;1.23;0.50;;;14.70;89.90;;;;;;5097716;28;20432;-92
2022/06/02 00:53:17;;;;;;;0.70;0.40;;;14.60;90.10;;;;;;5096998;28;20469;-83
2022/06/02 00:58:58;;;;;;;0.53;0.53;;;14.60;90.30;;;;;;5096980;28;20404;-89
2022/06/02 01:01:27;;;;;;;0.40;0.40;;;14.60;90.40;;;;;;5097261;28;20794;-91
2022/06/02 01:03:56;;;;;;;0.40;0.30;;;14.50;90.10;;;;;;5097070;28;20472;-91
2022/06/02 01:06:47;;;;;;;0.90;0.40;;;14.60;90.40;;;;;;5097359;28;20451;-91
2022/06/02 01:09:48;;;;;;;0.30;0.30;;;14.50;90.40;;;;;;5096948;28;20435;-91
2022/06/02 01:12:39;;;;;;;0.30;0.30;;;14.50;90.80;;;;;;5096984;28;20475;-92
2022/06/02 01:15:17;;;;;;;0.50;0.40;;;14.50;91.10;;;;;;5096568;28;20429;-89
2022/06/02 01:17:59;;;;;;;0.43;0.40;;;14.40;90.50;;;;;;5096554;28;20801;-89
2022/06/02 01:20:36;;;;;;;0.40;0.40;;;14.40;90.50;;;;;;5095747;28;20428;-84
2022/06/02 01:23:29;;;;;;;0.40;0.30;;;14.40;90.50;;;;;;5095676;28;20474;-84
2022/06/02 01:26:16;;;;;;;0.40;0.40;;;14.40;90.70;;;;;;5095732;28;20464;-82
2022/06/02 01:28:53;;;;;;;0.40;0.30;;;14.40;90.70;;;;;;5095607;28;20454;-83
2022/06/02 01:31:30;;;;;;;0.40;0.30;;;14.40;91.10;;;;;;5095980;28;20489;-89
2022/06/02 01:34:05;;;;;;;0.40;0.40;;;14.40;90.30;;;;;;5096199;28;20554;-89
2022/06/02 01:36:37;;;;;;;0.40;0.40;;;14.40;90.60;;;;;;5096115;28;20439;-89
2022/06/02 01:39:17;;;;;;;0.47;0.30;;;14.40;90.80;;;;;;5096307;28;20432;-89
2022/06/02 01:41:52;;;;;;;0.40;0.40;;;14.50;91.10;;;;;;5095340;28;20480;-84
2022/06/02 01:44:27;;;;;;;0.57;0.50;;;14.50;91.30;;;;;;5095382;28;20467;-83
2022/06/02 01:47:02;;;;;;;0.40;0.30;;;14.50;91.30;;;;;;5095261;28;20439;-83
2022/06/02 01:49:51;;;;;;;1.60;0.40;;;14.50;91.10;;;;;;5095129;28;20762;-83
2022/06/02 01:52:38;;;;;;;0.40;0.40;;;14.50;91.20;;;;;;5094486;28;20834;-91
2022/06/02 01:55:17;;;;;;;0.50;0.50;;;14.40;91.10;;;;;;5095860;28;20409;-91
2022/06/02 01:57:56;;;;;;;0.40;0.30;;;14.40;91.30;;;;;;5095211;28;20428;-91
2022/06/02 02:00:26;;;;;;;0.40;0.40;;;14.40;91.30;;;;;;5096086;28;20444;-92
2022/06/02 02:03:02;;;;;;;0.40;0.40;;;14.40;91.50;;;;;;5096427;28;20477;-91
2022/06/02 02:05:39;;;;;;;0.37;0.30;;;14.40;91.30;;;;;;5095640;28;20977;-90
2022/06/02 02:08:27;;;;;;;2.60;0.50;;;14.40;90.90;;;;;;5095563;28;20922;-91
2022/06/02 02:11:07;;;;;;;0.40;0.40;;;14.40;90.60;;;;;;5096021;28;20436;-91
2022/06/02 02:13:42;;;;;;;0.30;0.30;;;14.40;90.20;;;;;;5095486;28;20468;-89
2022/06/02 02:16:21;;;;;;;0.37;0.30;;;14.40;90.20;;;;;;5095532;28;20428;-89
2022/06/02 02:18:59;;;;;;;0.40;0.40;;;14.30;90.60;;;;;;5095622;28;20432;-89
2022/06/02 02:21:38;;;;;;;0.30;0.30;;;14.40;90.30;;;;;;5095458;28;20410;-88
2022/06/02 02:24:20;;;;;;;0.47;0.37;;;14.30;90.10;;;;;;5095131;28;20470;-89
2022/06/02 02:26:54;;;;;;;0.40;0.40;;;14.20;90.10;;;;;;5094696;28;20435;-83
2022/06/02 02:29:29;;;;;;;0.77;0.43;;;14.20;90.60;;;;;;5094457;28;20428;-84
2022/06/02 02:32:05;;;;;;;0.40;0.40;;;14.30;90.50;;;;;;5094596;28;20439;-92
2022/06/02 02:34:43;;;;;;;0.43;0.40;;;14.20;90.30;;;;;;5095408;28;20428;-92
2022/06/02 02:37:15;;;;;;;0.80;0.40;;;14.20;90.20;;;;;;5095394;28;20859;-92
2022/06/02 02:39:49;;;;;;;0.40;0.40;;;14.10;90.20;;;;;;5094880;28;20432;-83
2022/06/02 02:42:23;;;;;;;0.97;0.87;;;14.10;90.50;;;;;;5093571;28;20499;-82
2022/06/02 02:45:13;;;;;;;0.30;0.30;;;14.00;90.60;;;;;;5093775;28;20472;-82
2022/06/02 02:47:47;;;;;;;0.60;0.50;;;14.00;90.90;;;;;;5093844;28;20423;-84
2022/06/02 02:50:20;;;;;;;0.40;0.30;;;14.00;90.70;;;;;;5094279;28;20441;-91
2022/06/02 02:52:56;;;;;;;0.40;0.40;;;13.90;90.80;;;;;;5095050;28;20474;-90
2022/06/02 02:55:29;;;;;;;1.73;0.60;;;13.90;90.60;;;;;;5093873;28;20428;-84
2022/06/02 02:58:02;;;;;;;0.40;0.40;;;13.90;90.90;;;;;;5094500;28;20425;-90
2022/06/02 03:00:34;;;;;;;0.40;0.40;;;13.90;90.80;;;;;;5095024;28;20479;-92
2022/06/02 03:03:09;;;;;;;0.40;0.30;;;13.90;91.10;;;;;;5094482;28;20468;-84
2022/06/02 03:05:48;;;;;;;0.53;0.40;;;13.90;91.50;;;;;;5094242;28;20467;-89
2022/06/02 03:08:22;;;;;;;0.53;0.40;;;13.90;91.40;;;;;;5094134;28;20783;-82
2022/06/02 03:10:56;;;;;;;0.30;0.30;;;13.80;91.70;;;;;;5094114;28;20907;-89
2022/06/02 03:13:34;;;;;;;0.40;0.30;;;13.80;91.60;;;;;;5094110;28;20970;-89
2022/06/02 03:16:07;;;;;;;0.40;0.40;;;13.80;92.10;;;;;;5094037;28;20428;-89
2022/06/02 03:18:46;;;;;;;0.40;0.40;;;13.80;92.60;;;;;;5094446;28;20899;-89
2022/06/02 03:21:21;;;;;;;0.53;0.40;;;13.80;92.50;;;;;;5094233;28;20435;-83
2022/06/02 03:24:12;;;;;;;0.50;0.30;;;13.80;92.20;;;;;;5093665;28;20468;-89
2022/06/02 03:26:50;;;;;;;0.40;0.40;;;13.70;92.10;;;;;;5093676;28;20474;-89
2022/06/02 03:29:26;;;;;;;0.40;0.40;;;13.70;92.30;;;;;;5094611;28;20432;-92
2022/06/02 03:32:00;;;;;;;0.43;0.40;;;13.70;92.00;;;;;;5094065;28;20443;-82
2022/06/02 03:34:36;;;;;;;0.50;0.40;;;13.70;92.00;;;;;;5094072;28;20447;-84
2022/06/02 03:37:24;;;;;;;0.60;0.40;;;13.70;92.40;;;;;;5093451;28;20426;-84
2022/06/02 03:40:04;;;;;;;2.53;0.43;;;13.70;92.40;;;;;;5093746;28;20459;-89
2022/06/02 03:42:38;;;;;;;0.73;0.50;;;13.70;92.60;;;;;;5093687;28;20852;-89
2022/06/02 03:45:25;;;;;;;0.40;0.30;;;13.70;92.20;;;;;;5094284;28;20471;-89
2022/06/02 03:48:06;;;;;;;0.40;0.37;;;13.70;92.50;;;;;;5094187;28;20436;-89
2022/06/02 03:51:04;;;;;;;2.80;0.50;;;13.70;92.30;;;;;;5094368;28;20436;-91
2022/06/02 03:53:58;;;;;;;0.50;0.30;;;13.90;91.70;;;;;;5093179;28;20845;-83
2022/06/02 03:56:36;;;;;;;0.50;0.50;;;13.90;92.00;;;;;;5093391;28;20424;-85
2022/06/02 03:59:25;;;;;;;0.40;0.30;;;13.90;92.00;;;;;;5093791;28;20413;-92
2022/06/02 04:01:59;;;;;;;0.50;0.40;;;13.90;91.90;;;;;;5094095;28;20861;-92
2022/06/02 04:04:39;;;;;;;0.60;0.50;;;13.90;91.50;;;;;;5093996;28;20800;-89
2022/06/02 04:07:24;;;;;;;0.30;0.30;;;13.90;91.70;;;;;;5092989;28;20998;-83
2022/06/02 04:10:01;;;;;;;0.50;0.40;;;13.90;91.90;;;;;;5093571;28;20782;-91
2022/06/02 04:15:55;;;;;;;0.97;0.43;;;14.00;92.10;;;;;;5093687;28;20423;-88
2022/06/02 04:18:29;;;;;;;0.53;0.43;;;14.10;91.90;;;;;;5097414;28;20459;-91
2022/06/02 04:21:07;;;;;;;0.40;0.30;;;14.10;92.00;;;;;;5098764;28;20435;-89
2022/06/02 04:24:21;;;;;;;1.13;0.60;;;14.20;92.00;;;;;;5097378;28;20485;-82
2022/06/02 04:26:58;;;;;;;0.30;0.30;;;14.20;91.50;;;;;;4994864;28;20995;-82
2022/06/02 04:29:39;;;;;;;0.50;0.50;;;14.30;91.50;;;;;;4995770;28;20471;-88
2022/06/02 04:32:16;;;;;;;0.40;0.40;;;14.20;91.30;;;;;;5066328;28;20878;-83
2022/06/02 04:34:50;;;;;;;1.07;0.77;;;14.30;91.30;;;;;;5096703;28;20911;-90
2022/06/02 04:37:24;;;;;;;7.13;0.50;;;14.30;91.30;;;;;;5097889;28;20918;-90
2022/06/02 04:39:57;;;;;;;0.40;0.40;;;14.30;90.90;;;;;;5097609;28;20431;-91
2022/06/02 04:42:34;;;;;;;0.60;0.40;;;14.30;91.40;;;;;;5097199;28;20491;-90
2022/06/02 04:45:09;;;;;;;0.30;0.30;;;14.40;91.30;;;;;;5097620;28;20424;-91
2022/06/02 04:47:54;;;;;;;0.40;0.33;;;14.50;91.00;;;;;;5097394;28;20497;-87
2022/06/02 04:50:31;;;;;;;0.40;0.33;;;14.50;90.90;;;;;;5096512;28;20447;-82
2022/06/02 04:53:10;;;;;;;0.40;0.40;;;14.60;91.10;;;;;;5096230;28;20448;-82
2022/06/02 04:55:49;;;;;;;0.40;0.33;;;14.70;90.60;;;;;;5096073;28;20926;-84
2022/06/02 04:58:25;;;;;;;0.50;0.50;;;14.80;90.50;;;;;;5096405;28;20439;-83
2022/06/02 05:01:00;;;;;;;0.43;0.30;;;14.80;90.70;;;;;;5096144;28;20475;-84
2022/06/02 05:03:38;;;;;;;0.40;0.40;;;14.80;91.00;;;;;;5096676;28;20503;-91
2022/06/02 05:06:11;;;;;;;0.40;0.40;;;14.80;90.80;;;;;;5097136;28;20464;-91
2022/06/02 05:09:00;;;;;;;0.40;0.30;;;14.90;90.90;;;;;;5097049;28;20443;-84
2022/06/02 05:11:43;;;;;;;0.43;0.40;;;14.90;90.60;;;;;;5095969;28;20435;-84
2022/06/02 05:14:21;;;;;;;0.70;0.50;;;15.00;91.30;;;;;;5096996;28;20471;-91
2022/06/02 05:16:59;;;;;;;0.90;0.40;;;15.10;90.80;;;;;;5097011;28;20438;-91
2022/06/02 05:19:36;;;;;;;0.40;0.30;;;15.20;90.60;;;;;;5096854;28;20443;-91
2022/06/02 05:22:30;;;;;;;0.50;0.50;;;15.30;90.10;;;;;;5096828;28;20440;-91
2022/06/02 05:25:31;;;;;;;1.33;0.40;;;15.40;90.40;;;;;;5096103;28;20838;-88
2022/06/02 05:28:45;;;;;;;0.53;0.50;;;15.60;89.40;;;;;;5095531;28;20423;-91
2022/06/02 05:31:36;;;;;;;0.50;0.40;;;15.70;89.50;;;;;;5014258;28;20993;-83
2022/06/02 05:34:41;;;;;;;0.50;0.40;;;15.80;88.30;;;;;;5013634;28;20869;-88
2022/06/02 05:37:24;;;;;;;1.27;0.40;;;15.90;86.90;;;;;;5084795;28;20448;-91
2022/06/02 05:40:03;;;;;;;0.40;0.33;;;16.00;85.50;;;;;;5096428;28;20433;-89
2022/06/02 05:42:43;;;;;;;0.80;0.80;;;16.00;85.60;;;;;;5094880;28;20464;-82
2022/06/02 05:45:40;;;;;;;0.50;0.50;;;16.00;86.40;;;;;;5094898;28;20899;-83
2022/06/02 05:48:29;;;;;;;0.40;0.40;;;16.10;86.80;;;;;;5095056;28;20428;-82
2022/06/02 05:51:03;;;;;;;0.50;0.50;;;16.40;84.40;;;;;;5095436;28;20807;-88
2022/06/02 05:53:44;;;;;;;0.77;0.50;;;16.50;85.00;;;;;;5095701;28;20474;-88
2022/06/02 05:56:21;;;;;;;0.40;0.30;;;16.60;85.40;;;;;;5095803;28;20428;-91
2022/06/02 05:59:20;;;;;;;3.23;0.80;;;16.70;84.20;;;;;;5095566;28;20439;-88
2022/06/02 06:02:05;;;;;;;0.40;0.40;;;16.90;83.30;;;;;;5095098;28;20461;-82
2022/06/02 06:04:50;;;;;;;0.40;0.30;;;17.10;82.80;;;;;;5094954;28;20432;-84
2022/06/02 06:07:29;;;;;;;0.50;0.40;;;17.30;83.00;;;;;;5094776;28;20464;-84
2022/06/02 06:10:04;;;;;;;0.63;0.50;;;17.60;82.00;;;;;;5094805;28;20436;-84
2022/06/02 06:13:04;;;;;;;0.60;0.60;;;17.60;82.20;;;;;;5094720;28;20813;-83
2022/06/02 06:15:45;;;;;;;0.50;0.50;;;17.70;82.70;;;;;;5094753;28;20436;-83
2022/06/02 06:18:29;;;;;;;0.93;0.57;;;17.90;80.20;;;;;;5094481;28;20432;-84
2022/06/02 06:21:09;;;;;;;0.87;0.60;;;18.00;80.10;;;;;;5095105;28;20432;-94
2022/06/02 06:24:04;;;;;;;0.50;0.50;;;18.30;79.70;;;;;;5096737;28;20467;-94
2022/06/02 06:26:42;;;;;;;1.23;0.60;;;18.70;78.70;;;;;;5095790;28;20464;-93
2022/06/02 06:29:31;;;;;;;0.50;0.50;;;19.00;78.90;;;;;;5095404;28;20519;-94
2022/06/02 06:32:05;;;;;;;3.03;0.70;;;19.50;78.20;;;;;;5095240;28;20439;-94
2022/06/02 06:34:45;;;;;;;0.70;0.70;;;20.00;75.30;;;;;;5095164;28;20432;-84
2022/06/02 06:37:37;;;;;;;0.53;0.53;;;20.40;72.40;;;;;;5094354;28;20432;-82
2022/06/02 06:40:13;;;;;;;0.93;0.70;;;20.60;71.80;;;;;;5093549;28;20443;-82
2022/06/02 06:42:51;;;;;;;0.50;0.50;;;20.70;71.20;;;;;;5093750;28;20244;-83
2022/06/02 06:45:21;;;;;;;0.60;0.50;;;20.80;72.10;;;;;;5094221;28;20189;-84
2022/06/02 06:47:56;;;;;;;0.50;0.50;;;20.90;70.40;;;;;;5094028;28;20205;-84
2022/06/02 06:50:29;;;;;;;0.60;0.50;;;20.90;69.70;;;;;;5094179;28;20192;-90
2022/06/02 06:53:15;;;;;;;0.50;0.50;;;21.30;68.40;;;;;;5094075;28;20715;-88
2022/06/02 06:55:52;;;;;;;0.63;0.63;;;21.40;67.40;;;;;;5093976;28;20193;-85
2022/06/02 06:58:29;;;;;;;0.70;0.60;;;21.20;67.10;;;;;;5093727;28;20227;-85
2022/06/02 07:01:04;;;;;;;1.37;0.53;;;21.00;67.50;;;;;;5093974;28;20189;-84
2022/06/02 07:03:42;;;;;;;1.10;0.50;;;20.80;67.30;;;;;;5093704;28;20444;-95
2022/06/02 07:06:15;;;;;;;0.63;0.50;;;20.60;68.00;;;;;;5094571;28;21004;-86
2022/06/02 07:08:51;;;;;;;0.70;0.57;;;20.60;68.50;;;;;;5093707;28;20432;-86
2022/06/02 07:14:13;;;;;;;0.50;0.50;;;20.50;68.10;;;;;;5093581;28;20439;-96
2022/06/02 07:16:47;;;;;;;0.60;0.50;;;20.50;68.10;;;;;;5095708;28;20423;-95
2022/06/02 07:19:24;;;;;;;0.40;0.40;;;20.50;68.40;;;;;;5094746;28;20412;-96
2022/06/02 07:21:54;;;;;;;0.50;0.40;;;20.50;67.60;;;;;;5095495;28;20438;-96
2022/06/02 07:24:35;;;;;;;0.70;0.50;;;20.50;68.70;;;;;;5094873;28;20451;-95
2022/06/02 07:27:11;;;;;;;1.10;0.57;;;20.40;69.30;;;;;;5094307;28;20470;-96
2022/06/02 07:30:03;;;;;;;0.60;0.60;;;20.50;69.40;;;;;;5095091;28;20431;-95
2022/06/02 07:33:09;;;;;;;0.40;0.40;;;20.70;69.40;;;;;;5093707;28;20554;-83
2022/06/02 07:36:11;;;;;;;0.40;0.40;;;21.00;68.50;;;;;;5093970;28;20530;-83
2022/06/02 07:39:15;;;;;;;1.70;0.67;;;21.70;67.40;;;;;;5093377;28;20200;-82
2022/06/02 07:42:01;;;;;;;3.25;0.63;;;22.50;66.00;;;;;;5076268;28;20233;-82
2022/06/02 07:44:58;;;;;;;0.50;0.40;;;23.20;65.00;;;;;;5094310;28;20190;-86
2022/06/02 07:47:46;;;;;;;0.70;0.55;;;24.00;62.20;;;;;;5096745;28;20209;-85
2022/06/02 07:50:20;;;;;;;0.60;0.60;;;24.80;61.60;;;;;;5105161;28;20542;-86
2022/06/02 07:52:59;;;;;;;0.60;0.52;;;25.30;60.50;;;;;;5101135;28;20216;-95
2022/06/02 07:55:33;;;;;;;0.60;0.60;;;25.90;59.00;;;;;;5100714;28;20612;-88
2022/06/02 07:58:23;;;;;;;0.60;0.60;;;26.30;57.60;;;;;;5098762;28;20186;-83
2022/06/02 08:00:55;;;;;;;1.63;0.90;;;26.30;58.10;;;;;;5100630;28;20642;-86
2022/06/02 08:03:54;;;;;;;0.70;0.70;;;26.10;57.20;;;;;;5097764;28;20222;-89
2022/06/02 08:06:36;;;;;;;0.60;0.60;;;26.10;56.50;;;;;;5088755;28;20220;-94
2022/06/02 08:09:35;;;;;;;0.52;0.52;;;25.90;56.80;;;;;;5097234;28;20258;-86
2022/06/02 08:12:06;;;;;;;0.70;0.70;;;26.00;56.60;;;;;;5094670;28;20286;-86
2022/06/02 08:14:42;;;;;;;0.60;0.60;;;26.00;56.00;;;;;;5098035;28;20205;-89
2022/06/02 08:17:20;;;;;;;0.77;0.40;;;25.60;54.10;;;;;;5097697;28;20671;-87
2022/06/02 08:20:00;;;;;;;0.73;0.60;;;25.10;56.00;;;;;;5097120;28;20214;-87
2022/06/02 08:22:34;;;;;;;0.70;0.50;;;24.80;57.50;;;;;;5096683;28;20216;-87
2022/06/02 08:25:09;;;;;;;0.70;0.70;;;24.90;56.60;;;;;;5097301;28;20197;-86
2022/06/02 08:27:51;;;;;;;0.50;0.50;;;24.90;56.70;;;;;;5097588;28;20208;-85
2022/06/02 08:30:23;;;;;;;0.75;0.65;;;24.90;58.50;;;;;;5096487;28;20642;-86
2022/06/02 08:33:11;;;;;;;0.57;0.57;;;25.30;56.10;;;;;;5096809;28;20301;-86
2022/06/02 08:35:45;;;;;;;0.50;0.50;;;25.10;56.80;;;;;;5096475;28;20182;-86
2022/06/02 08:38:33;;;;;;;0.50;0.50;;;25.20;56.20;;;;;;5097754;28;20193;-93
2022/06/02 08:41:31;;;;;;;0.60;0.60;;;25.10;55.70;;;;;;5098288;28;20238;-92
2022/06/02 08:44:34;;;;;;;0.57;0.57;;;25.50;55.00;;;;;;5097708;28;20226;-94
2022/06/02 08:47:37;;;;;;;0.40;0.40;;;25.50;55.20;;;;;;5099924;28;20211;-95
2022/06/02 08:50:32;;;;;;;0.60;0.60;;;25.30;56.00;;;;;;5102123;28;20196;-94
2022/06/02 08:53:36;;;;;;;0.50;0.50;;;25.40;56.00;;;;;;5096944;28;20720;-85
2022/06/02 08:56:38;;;;;;;0.60;0.60;;;25.80;55.10;;;;;;5096342;28;20204;-85
2022/06/02 08:59:41;;;;;;;0.50;0.50;;;26.10;54.10;;;;;;5096286;28;20187;-86
2022/06/02 09:02:47;;;;;;;1.00;0.60;;;26.20;54.30;;;;;;5095128;28;20191;-86
2022/06/02 09:05:50;;;;;;;0.60;0.60;;;26.30;54.10;;;;;;5092035;28;20201;-87
2022/06/02 09:08:40;;;;;;;1.55;0.70;;;26.50;54.40;;;;;;5098534;28;20209;-93
2022/06/02 09:11:25;;;;;;;0.50;0.50;;;26.50;53.70;;;;;;5096931;28;20193;-83
2022/06/02 09:14:19;;;;;;;1.40;0.60;;;25.90;55.20;;;;;;5099016;28;20225;-95
2022/06/02 09:16:57;;;;;;;0.60;0.60;;;25.40;55.60;;;;;;5096471;28;20205;-82
2022/06/02 09:19:38;;;;;;;0.50;0.50;;;25.10;56.30;;;;;;5095806;28;20281;-82
2022/06/02 09:22:33;;;;;;;0.40;0.40;;;24.90;56.20;;;;;;5096249;28;20190;-86
2022/06/02 09:25:15;;;;;;;0.57;0.52;;;24.70;56.80;;;;;;5095892;28;20190;-86
2022/06/02 09:28:03;;;;;;;0.50;0.50;;;24.50;56.90;;;;;;5096164;28;20213;-83
2022/06/02 09:30:41;;;;;;;1.00;0.70;;;24.40;56.70;;;;;;5095392;28;20648;-83
2022/06/02 09:33:37;;;;;;;0.65;0.65;;;24.30;56.20;;;;;;5095738;28;20725;-86
2022/06/02 09:36:20;;;;;;;0.50;0.50;;;24.20;57.30;;;;;;5095567;28;20186;-86
2022/06/02 09:38:59;;;;;;;0.73;0.70;;;24.30;57.30;;;;;;5095451;28;20541;-87
2022/06/02 09:41:53;;;;;;;0.65;0.60;;;24.30;56.40;;;;;;5095251;28;20240;-86
2022/06/02 09:44:27;;;;;;;0.50;0.50;;;24.40;56.90;;;;;;5095420;28;20208;-82
2022/06/02 09:47:42;;;;;;;0.90;0.68;;;24.40;57.20;;;;;;5095325;28;20220;-82
2022/06/02 09:50:29;;;;;;;0.50;0.50;;;24.00;56.70;;;;;;5095304;28;20185;-81
2022/06/02 09:53:28;;;;;;;0.40;0.40;;;24.00;58.00;;;;;;5094911;28;20712;-86
2022/06/02 09:56:19;;;;;;;0.55;0.55;;;24.00;57.10;;;;;;5043015;28;20209;-84
2022/06/02 09:58:57;;;;;;;0.60;0.60;;;23.90;57.80;;;;;;5095297;28;20198;-86
2022/06/02 10:01:39;;;;;;;0.50;0.50;;;23.90;58.10;;;;;;5094812;28;20664;-86
2022/06/02 10:04:31;;;;;;;0.60;0.60;;;23.80;57.80;;;;;;5095019;28;20739;-86
2022/06/02 10:07:10;;;;;;;0.65;0.65;;;23.60;57.00;;;;;;5094874;28;20220;-85
2022/06/02 10:09:56;;;;;;;0.50;0.40;;;23.60;57.60;;;;;;5094891;28;20192;-85
2022/06/02 10:15:46;;;;;;;0.40;0.40;;;23.60;57.40;;;;;;5094005;28;20694;-82
2022/06/02 10:18:29;;;;;;;1.20;0.63;;;23.40;58.40;;;;;;5095216;28;20556;-83
2022/06/02 10:21:09;;;;;;;0.60;0.60;;;23.30;59.00;;;;;;5094570;28;20201;-82
2022/06/02 10:24:17;;;;;;;0.40;0.40;;;23.40;59.50;;;;;;5094206;28;20610;-82
2022/06/02 10:26:55;;;;;;;0.60;0.60;;;23.40;58.40;;;;;;5056458;28;20540;-82
2022/06/02 10:29:56;;;;;;;0.80;0.52;;;23.50;58.00;;;;;;5095419;28;20239;-81
2022/06/02 10:32:55;;;;;;;0.50;0.50;;;23.50;58.10;;;;;;5094328;28;20221;-81
2022/06/02 10:36:00;;;;;;;0.52;0.52;;;23.40;56.80;;;;;;5153194;27;20513;-81
2022/06/02 10:38:39;;;;;;;0.60;0.60;;;23.30;57.20;;;;;;5152475;27;20569;-80
2022/06/02 10:41:43;;;;;;;0.50;0.50;;;23.20;58.10;;;;;;5152501;27;20180;-81
2022/06/02 10:44:15;;;;;;;0.82;0.50;;;23.20;58.10;;;;;;5152262;27;20230;-84
2022/06/02 10:47:23;;;;;;;1.10;0.47;;;23.10;58.40;;;;;;5152494;27;20199;-85
2022/06/02 10:49:56;;;;;;;0.50;0.50;;;23.10;59.20;;;;;;5152439;27;20210;-85
2022/06/02 10:52:56;;;;;;;0.83;0.53;;;23.30;58.70;;;;;;5152259;27;20219;-84
2022/06/02 10:55:41;;;;;;;0.50;0.50;;;23.40;59.30;;;;;;5152064;27;20248;-84
2022/06/02 10:58:45;;;;;;;0.50;0.50;;;23.70;59.80;;;;;;5152184;27;20190;-87
2022/06/02 11:01:46;;;;;;;0.70;0.50;;;24.00;58.70;;;;;;5151966;27;20186;-84
2022/06/02 11:04:50;;;;;;;0.52;0.50;;;24.50;57.60;;;;;;5146497;27;20230;-84
2022/06/02 11:07:51;;;;;;;0.73;0.60;;;24.70;57.10;;;;;;5093782;27;20203;-84
2022/06/02 11:10:53;;;;;;;0.50;0.50;;;24.90;57.10;;;;;;5152636;27;20207;-86
2022/06/02 11:13:59;;;;;;;0.50;0.50;;;24.70;58.60;;;;;;5141906;27;20223;-89
2022/06/02 11:16:59;;;;;;;0.50;0.50;;;24.60;57.60;;;;;;5152524;27;20191;-88
2022/06/02 11:19:59;;;;;;;0.50;0.50;;;24.40;58.20;;;;;;5153295;27;20548;-89
2022/06/02 11:22:54;;;;;;;0.60;0.60;;;24.10;59.30;;;;;;5152137;27;20706;-89
2022/06/02 11:25:47;;;;;;;0.70;0.70;;;24.10;59.50;;;;;;5141693;27;20348;-88
2022/06/02 11:28:49;;;;;;;7.13;0.73;;;24.00;58.40;;;;;;5152580;27;20190;-90
2022/06/02 11:31:47;;;;;;;0.65;0.65;;;23.90;58.70;;;;;;5152103;27;20199;-88
2022/06/02 11:34:41;;;;;;;0.50;0.50;;;23.80;59.90;;;;;;5151427;27;20223;-88
2022/06/02 11:37:40;;;;;;;0.70;0.70;;;23.80;58.90;;;;;;5152519;27;20188;-88
2022/06/02 11:40:34;;;;;;;0.50;0.50;;;23.70;60.00;;;;;;5151713;27;20188;-87
2022/06/02 11:43:12;;;;;;;0.70;0.70;;;23.70;60.80;;;;;;5149746;27;20224;-89
2022/06/02 11:46:03;;;;;;;0.50;0.50;;;23.70;59.90;;;;;;5144606;27;20208;-82
2022/06/02 11:48:51;;;;;;;0.45;0.45;;;23.80;60.60;;;;;;5137096;27;20590;-81
2022/06/02 11:51:55;;;;;;;0.82;0.70;;;23.90;59.50;;;;;;5137709;27;20192;-87
2022/06/02 11:54:36;;;;;;;0.77;0.77;;;23.80;59.40;;;;;;5137759;27;20211;-85
2022/06/02 11:57:27;;;;;;;0.73;0.60;;;23.80;59.10;;;;;;5136968;27;20192;-84
2022/06/02 12:00:14;;;;;;;0.50;0.45;;;23.80;59.80;;;;;;5137193;27;20586;-85
2022/06/02 12:03:10;;;;;;;0.63;0.50;;;23.80;59.60;;;;;;5137069;27;20227;-84
2022/06/02 12:06:28;;;;;;;0.90;0.73;;;23.90;59.70;;;;;;5136910;27;20568;-84
2022/06/02 12:09:33;;;;;;;0.55;0.55;;;23.90;59.40;;;;;;5136713;27;20184;-84
2022/06/02 12:12:18;;;;;;;0.50;0.50;;;23.80;59.80;;;;;;5131625;27;20196;-84
2022/06/02 12:15:11;;;;;;;0.50;0.50;;;23.70;59.70;;;;;;5136920;27;20180;-81
2022/06/02 12:18:04;;;;;;;0.50;0.50;;;23.50;59.90;;;;;;5136812;27;20204;-81
2022/06/02 12:20:58;;;;;;;0.43;0.43;;;23.40;60.60;;;;;;5126080;27;20203;-81
2022/06/02 12:23:41;;;;;;;0.50;0.50;;;23.40;60.70;;;;;;5136666;27;20310;-81
2022/06/02 12:26:14;;;;;;;0.50;0.50;;;23.30;60.60;;;;;;5136706;27;20180;-81
2022/06/02 12:28:48;;;;;;;0.60;0.60;;;23.20;61.50;;;;;;5136347;27;20654;-81
2022/06/02 12:31:52;;;;;;;0.60;0.50;;;23.20;61.10;;;;;;5136611;27;20187;-84
2022/06/02 12:34:51;;;;;;;0.63;0.60;;;23.30;60.80;;;;;;5136194;27;20223;-83
2022/06/02 12:37:40;;;;;;;0.60;0.50;;;23.40;59.20;;;;;;5136616;27;20253;-88
2022/06/02 12:40:29;;;;;;;0.40;0.40;;;23.40;60.40;;;;;;5136827;27;20233;-88
2022/06/02 12:43:27;;;;;;;0.75;0.65;;;23.30;60.20;;;;;;5136762;27;20220;-87
2022/06/02 12:46:07;;;;;;;0.45;0.45;;;23.30;61.10;;;;;;5137170;27;20215;-88
2022/06/02 12:49:09;;;;;;;0.73;0.73;;;23.40;61.70;;;;;;5136796;27;20195;-87
2022/06/02 12:51:58;;;;;;;0.50;0.40;;;23.30;60.80;;;;;;5136341;27;20673;-84
2022/06/02 12:55:03;;;;;;;0.60;0.60;;;23.30;61.60;;;;;;5136127;27;20177;-85
2022/06/02 12:58:03;;;;;;;0.73;0.50;;;23.40;60.20;;;;;;5135500;27;20188;-83
2022/06/02 13:00:55;;;;;;;0.80;0.47;;;23.30;60.70;;;;;;5136087;27;20615;-85
2022/06/02 13:04:15;;;;;;;0.60;0.60;;;23.30;61.00;;;;;;5136042;27;20223;-87
2022/06/02 13:07:17;;;;;;;0.63;0.63;;;22.90;61.80;;;;;;5136690;27;20196;-87
2022/06/02 13:10:21;;;;;;;0.77;0.60;;;22.90;62.90;;;;;;5136285;27;20203;-87
2022/06/02 13:13:28;;;;;;;0.80;0.70;;;22.70;63.00;;;;;;5136089;27;20220;-88
2022/06/02 13:16:14;;;;;;;0.40;0.40;;;22.90;63.00;;;;;;5110117;27;20206;-85
2022/06/02 13:19:19;;;;;;;0.60;0.60;;;23.00;61.70;;;;;;5136489;27;20187;-88
2022/06/02 13:22:06;;;;;;;0.60;0.60;;;23.10;62.00;;;;;;5109938;27;20202;-89
2022/06/02 13:25:00;;;;;;;0.50;0.50;;;23.00;62.50;;;;;;5136179;27;20212;-89
2022/06/02 13:27:48;;;;;;;0.50;0.40;;;23.00;63.40;;;;;;5135536;27;20547;-80
2022/06/02 13:30:55;;;;;;;0.52;0.52;;;23.10;62.00;;;;;;5135415;27;20191;-81
2022/06/02 13:33:53;;;;;;;2.50;0.95;;;23.20;61.80;;;;;;5124464;27;20239;-88
2022/06/02 13:36:34;;;;;;;0.60;0.60;;;23.10;79.50;;;;;;5135117;27;20184;-81
2022/06/02 13:39:24;;;;;;;0.60;0.60;;;22.90;66.60;;;;;;5135296;27;20188;-84
2022/06/02 13:42:29;;;;;;;0.90;0.70;;;22.60;79.30;;;;;;5134831;27;20195;-84
2022/06/02 13:45:34;;;;;;;0.60;0.60;;;22.30;70.50;;;;;;5135067;27;20472;-82
2022/06/02 13:48:29;;;;;;;0.63;0.63;;;22.30;65.90;;;;;;5103100;27;20291;-76
2022/06/02 13:51:41;;;;;;;0.70;0.50;;;22.20;66.00;;;;;;5135024;27;20432;-76
2022/06/02 13:57:48;;;;;;;0.60;0.60;;;22.20;68.50;;;;;;5134753;27;20429;-84
2022/06/02 14:00:24;;;;;;;0.60;0.60;;;22.20;69.30;;;;;;5134877;27;20430;-84
2022/06/02 14:03:22;;;;;;;0.50;0.50;;;22.20;68.10;;;;;;5134779;27;20469;-82
2022/06/02 14:06:05;;;;;;;0.50;0.50;;;22.30;66.10;;;;;;5134717;27;20216;-76
2022/06/02 14:09:06;;;;;;;1.20;0.50;;;22.30;67.50;;;;;;5134165;27;20953;-77
2022/06/02 14:11:48;;;;;;;0.73;0.50;;;22.20;66.90;;;;;;5134753;27;20438;-76
2022/06/02 14:14:54;;;;;;;1.33;0.80;;;22.00;68.30;;;;;;5134362;27;20446;-76
2022/06/02 14:17:40;;;;;;;2.87;0.87;;;22.00;70.00;;;;;;5134626;27;20449;-81
2022/06/02 14:20:20;;;;;;;0.53;0.50;;;21.90;69.10;;;;;;5134566;27;20444;-83
2022/06/02 14:23:02;;;;;;;0.70;0.50;;;21.90;67.90;;;;;;5134507;27;20472;-83
2022/06/02 14:25:39;;;;;;;1.47;0.60;;;21.90;68.30;;;;;;5134479;27;20461;-83
2022/06/02 14:28:26;;;;;;;0.50;0.50;;;21.90;67.70;;;;;;5134586;27;20445;-83
2022/06/02 14:30:58;;;;;;;0.60;0.60;;;21.90;67.20;;;;;;5134537;27;20456;-84
2022/06/02 14:33:31;;;;;;;1.10;0.77;;;21.70;69.20;;;;;;5134153;27;20477;-83
2022/06/02 14:36:06;;;;;;;0.63;0.63;;;21.70;70.50;;;;;;5134293;27;20893;-83